Welcome to our Virtual Airline
Sign-in:

Flight MFC33101

  • Submitted By: James Smith
  • Departure Airport: Kaltag (KAL)
  • Arrival Airport: Anvik (PANV)
  • Aircraft: CT206H (N206MM-CG)
  • Flight Time: 01.30.44
  • Date Submitted: 2018/10/12
  • Route: STOP-OVER AT GRAYLING (KGX)
  • Status: Accepted
Flight Details
Gross Revenue:
(3 load / $ 108.00 per unit
$ 324.00
Fuel Cost:
(46.2664 fuel used @ 5.1 / unit)
$ 235.96

Additional Log Information:

View Log

FS[14:30] ----- Flight Opened -----
FS[14:30] Cigar Box - 1.1.4.0
FS[14:30] FS: Prepar3D V4
FS[14:30] FSUIPC: v5.131
FS[14:30] Flight Number: MFC33101
FS[14:30] FS Aircraft: PA-18_210 Experimental MM Checker FSX
FS[14:30] FS Model:
FS[14:30] FS Type: Piper
FS[14:30] Departure: KAL
FS[14:30] Arrival: PANV
FS[14:30] Flight Level: 2500
FS[14:30] Flight Type: H
FS[14:30] Passengers: 3
FS[14:30] FOB: 205 lbs
FS[14:30] Gate: n/a
FS[14:30] NOTE: Parking Brake Ignored
FS[14:30] Crash Detection: Disabled
FS[14:30] Engines: 1 Piston
FS[14:30] NOTE: Boarding has started
FS[14:30] Parking Brake: Engaged
FS[14:30] Engine 1: Started
FS[14:30] Light Data: Navigation ON
FS[14:30] Light Data: Beacon ON
FS[14:30] Light Data: Landing lights ON
FS[14:30] Light Data: Strobe lights ON
FS[14:30] Main Door Closed
FS[14:30] COM1: 122.90
FS[14:30] COM2: 127.80
FS[14:30] Transponder: 1200
FS[14:30] NAV1: 117.60
FS[14:30] NAV2: 116.60
FS[14:30] ADF1: 284.0
FS[14:30] ADF2: 240.0
FS[14:30] Navigation Mode: NAV
FS[14:30] Flaps: Position 1
FS[14:30] Parking Brake: Released
FS[14:30] NOTE: Taxi started
FS[14:30] Stall: Corrected
FS[14:30] GS: 21 knots
FS[14:30] TAS: 30 knots
FS[14:30] IAS: 31 knots
FS[14:30] VS: 6 fpm
FS[14:30] NOTE: ----- TAKE OFF -----
FS[14:30] GS: 31 knots
FS[14:30] TAS: 39 knots
FS[14:30] IAS: 39 knots
FS[14:30] VS: 6 fpm
FS[14:30] FOB: 205 lbs
FS[14:30] Heading: 25°
FS[14:30] Pitch: 11°
FS[14:30] Bank: 0°
FS[14:30] Aircraft Weight: 1955.46 lbs
FS[14:30] Nearest Airport: KAL
FS[14:30] Distance: 0.45 miles
FS[14:30] Runway: 3 - KAL
FS[14:30] Ground Surface: Gravel
FS[14:30] Ground Condition: Snow
FS[14:30] NOTE: Weather Report
FS[14:30] Wind Heading: 49°
FS[14:30] Wind Speed: 9 knots
FS[14:30] OAT: 3° C
FS[14:30] TAT: 3° C
FS[14:30] Precipitation: Very Light Rain
FS[14:30] Dew Point: 3° C
FS[14:30] Visibility: 9 miles
FS[14:30] METAR: KALB 121951Z 29017G23KT 10SM BKN050 13/04 A2968 RMK AO2 PK WND 27026/1936 SLP052 T01330039KALI 121953Z AUTO 15013KT 10SM SCT034 BKN044 31/23 A2985 RMK AO2 SLP105 T03110228KALK 121956Z AUTO 11010KT 6SM -RA BR BKN060 OVC075 14/12 A2999 RMK AO2 SLP087 P0006 T01390122KALM 121955Z AUTO 29006KT 7SM -RA FEW006 FEW035 BKN046 15/14 A3006 RMK AO2 P0002KALN 121948Z 00000KT 4SM DZ OVC014 06/05 A3002KALO 121954Z VRB06G16KT 10SM CLR 08/M01 A2994 RMK AO2 SLP146 T00781011KALS 121952Z AUTO 17006KT 10SM CLR 13/M04 A3010 RMK AO2 SLP139 T01331039KALW 121953Z 24013KT 10SM CLR 20/01 A2999 RMK AO2 SLP155 T02000011KALX 121955Z AUTO 29007KT 10SM CLR 22/12 A2991 RMK AO2 T02220115
FS[14:30] NOTE: Climb started
FS[14:30] Flaps: Position 0
FS[14:30] GS: 46 knots
FS[14:30] TAS: 55 knots
FS[14:30] IAS: 55 knots
FS[14:30] VS: 254 fpm
FS[14:31] View Mode: Virtual Cockpit
FS[14:31] Turbulence: Light
FS[14:32] Turbulence: None
FS[14:35] COM1: 127.00
FS[14:44] NOTE: TOC reached
FS[14:44] NOTE: Cruise started
FS[14:44] GS: 87 knots
FS[14:44] TAS: 82 knots
FS[14:44] IAS: 81 knots
FS[14:44] VS: 189 fpm
FS[14:44] FOB: 189 lbs
FS[14:44] Heading: 204°
FS[14:44] Pitch: 3°
FS[14:44] Bank: -3°
FS[14:44] Aircraft Weight: 1939.58 lbs
FS[14:47] NOTE: TOD reached
FS[14:47] NOTE: Descent started
FS[14:47] GS: 97 knots
FS[14:47] TAS: 90 knots
FS[14:47] IAS: 89 knots
FS[14:47] VS: -408 fpm
FS[14:47] FOB: 186 lbs
FS[14:47] Heading: 205°
FS[14:47] Pitch: 0°
FS[14:47] Bank: 0°
FS[14:47] Aircraft Weight: 1936.07 lbs
FS[14:47] NOTE: On approach
FS[14:49] Recovery: Flight Saved
FS[14:57] COM1: 135.70
FS[15:04] Recovery: Flight Saved
FS[15:21] Recovery: Flight Saved
FS[15:25] COM1: 122.90
FS[15:41] Flaps: Position 1
FS[15:41] GS: 62 knots
FS[15:41] TAS: 67 knots
FS[15:41] IAS: 67 knots
FS[15:41] VS: -259 fpm
FS[15:42] Flaps: Position 2
FS[15:42] GS: 46 knots
FS[15:42] TAS: 53 knots
FS[15:42] IAS: 52 knots
FS[15:42] VS: -305 fpm
FS[15:43] Turbulence: Light
FS[15:44] NOTE: ----- LANDED -----
FS[15:44] Landing Rate: -36.14 fpm
FS[15:44] GS: 23 knots
FS[15:44] TAS: 30 knots
FS[15:44] IAS: 30 knots
FS[15:44] VS: -36 fpm
FS[15:44] FOB: 120 lbs
FS[15:44] Heading: 141°
FS[15:44] Pitch: 14°
FS[15:44] Bank: 6°
FS[15:44] Aircraft Weight: 1870.59 lbs
FS[15:44] Nearest Airport: PANV
FS[15:44] Distance: 15.41 miles
FS[15:44] Runway: 15 - KGX
FS[15:44] Ground Surface: Gravel
FS[15:44] Ground Condition: Snow
FS[15:44] NOTE: Weather Report
FS[15:44] Wind Heading: 126°
FS[15:44] Wind Speed: 8 knots
FS[15:44] OAT: 7° C
FS[15:44] TAT: 7° C
FS[15:44] Precipitation: None
FS[15:44] Dew Point: 5° C
FS[15:44] Visibility: 39 miles
FS[15:44] METAR: PANV 121856Z AUTO 13008KT 10SM OVC046 06/04 A2954 RMK AO2 SLP023 T00610044
FS[15:44] View Mode: Virtual Cockpit
FS[15:44] NOTE: Taxi started
FS[15:45] Flaps: Position 1
FS[15:46] NOTE: Arrived
FS[15:46] Parking Brake: Engaged
FS[15:47] Parking Brake: Released
FS[15:47] Flaps: Position 0
FS[15:47] GS: 44 knots
FS[15:47] TAS: 53 knots
FS[15:47] IAS: 53 knots
FS[15:47] VS: 461 fpm
FS[15:47] View Mode: Virtual Cockpit
FS[15:48] Turbulence: Light
FS[15:48] COM1: 133.55
FS[15:49] COM1: 122.70
FS[15:49] Turbulence: None
FS[15:50] Recovery: Flight Saved
FS[15:57] Flaps: Position 1
FS[15:57] GS: 60 knots
FS[15:57] TAS: 67 knots
FS[15:57] IAS: 66 knots
FS[15:57] VS: 199 fpm
FS[15:58] Flaps: Position 2
FS[15:58] GS: 48 knots
FS[15:58] TAS: 55 knots
FS[15:58] IAS: 55 knots
FS[15:58] VS: -238 fpm
FS[15:58] FS: Paused
FS[15:58] Turbulence: Light
FS[15:58] FS: Unpaused
FS[16:00] Stall: Encountered
FS[16:00] GS: 29 knots
FS[16:00] TAS: 33 knots
FS[16:00] IAS: 33 knots
FS[16:00] VS: -44 fpm
FS[16:00] NOTE: ----- LANDED -----
FS[16:00] Landing Rate: -395.24 fpm
FS[16:00] GS: 27 knots
FS[16:00] TAS: 28 knots
FS[16:00] IAS: 28 knots
FS[16:00] VS: -420 fpm
FS[16:00] FOB: 104 lbs
FS[16:00] Heading: 251°
FS[16:00] Pitch: 11°
FS[16:00] Bank: -47°
FS[16:00] Aircraft Weight: 1854.33 lbs
FS[16:00] Nearest Airport: PANV
FS[16:00] Distance: 0.19 miles
FS[16:00] Runway: ???
FS[16:00] Ground Surface: Forest
FS[16:00] Ground Condition: Snow
FS[16:00] NOTE: Weather Report
FS[16:00] Wind Heading: 129°
FS[16:00] Wind Speed: 8 knots
FS[16:00] OAT: 6° C
FS[16:00] TAT: 6° C
FS[16:00] Precipitation: None
FS[16:00] Dew Point: 4° C
FS[16:00] Visibility: 39 miles
FS[16:00] METAR: PANV 121856Z AUTO 13008KT 10SM OVC046 06/04 A2954 RMK AO2 SLP023 T00610044
FS[16:00] View Mode: Virtual Cockpit
FS[16:00] Stall: Corrected
FS[16:00] GS: 27 knots
FS[16:00] TAS: 25 knots
FS[16:00] IAS: 25 knots
FS[16:00] VS: -206 fpm
FS[16:00] Flaps: Position 0
FS[16:01] Parking Brake: Engaged
FS[16:01] Engine 1: Stopped
FS[16:01] Gate: n/a
FS[16:01] NOTE: Flight Completed
FS[16:01] FS Aircraft: PA-18_210 Experimental MM Checker FSX
FS[16:01] FS Model:
FS[16:01] FS Type: Piper
FS[16:01] FOB: 103 lbs
FS[16:01] Fuel Used: 102 lbs
FS[16:01] Flight Time: 01:30:44
FS[16:01] Flight Time (Dawn): 00:00:00
FS[16:01] Flight Time (Day): 01:30:44
FS[16:01] Flight Time (Dusk): 00:00:00
FS[16:01] Flight Time (Night): 00:00:00
FS[16:01] Total Landings: 2
FS[16:01] MaxSim Rate: 0x
FS[16:01] Cigar Box - 1.1.4.0
FS[16:01] ----- Flight Closed -----

Route Map